sensor_id;sensor_type;location;lat;lon;timestamp;temperature;humidity
59075;DHT22;44860;53.020;6.738;2023-11-19T00:00:35;11.10;99.90
59075;DHT22;44860;53.020;6.738;2023-11-19T00:03:01;11.20;99.90
59075;DHT22;44860;53.020;6.738;2023-11-19T00:05:27;11.20;99.90
59075;DHT22;44860;53.020;6.738;2023-11-19T00:07:53;11.20;99.90
59075;DHT22;44860;53.020;6.738;2023-11-19T00:10:19;11.20;99.90
59075;DHT22;44860;53.020;6.738;2023-11-19T00:12:46;11.30;99.90
59075;DHT22;44860;53.020;6.738;2023-11-19T00:15:12;11.30;99.90
59075;DHT22;44860;53.020;6.738;2023-11-19T00:17:42;11.30;99.90
59075;DHT22;44860;53.020;6.738;2023-11-19T00:20:14;11.40;99.90
59075;DHT22;44860;53.020;6.738;2023-11-19T00:22:43;11.40;99.90
59075;DHT22;44860;53.020;6.738;2023-11-19T00:25:10;11.40;99.90
59075;DHT22;44860;53.020;6.738;2023-11-19T00:27:36;11.50;99.90
59075;DHT22;44860;53.020;6.738;2023-11-19T00:30:06;11.50;99.90
59075;DHT22;44860;53.020;6.738;2023-11-19T00:32:35;11.50;99.90
59075;DHT22;44860;53.020;6.738;2023-11-19T00:35:01;11.60;99.90
59075;DHT22;44860;53.020;6.738;2023-11-19T00:37:28;11.60;99.90
59075;DHT22;44860;53.020;6.738;2023-11-19T00:39:53;11.60;99.90
59075;DHT22;44860;53.020;6.738;2023-11-19T00:42:22;11.60;99.90
59075;DHT22;44860;53.020;6.738;2023-11-19T00:44:47;11.60;99.90
59075;DHT22;44860;53.020;6.738;2023-11-19T00:47:13;11.70;99.90
59075;DHT22;44860;53.020;6.738;2023-11-19T00:49:39;11.70;99.90
59075;DHT22;44860;53.020;6.738;2023-11-19T00:52:05;11.70;99.90
59075;DHT22;44860;53.020;6.738;2023-11-19T00:54:32;11.70;99.90
59075;DHT22;44860;53.020;6.738;2023-11-19T00:57:00;11.80;99.90
59075;DHT22;44860;53.020;6.738;2023-11-19T00:59:27;11.80;99.90
59075;DHT22;44860;53.020;6.738;2023-11-19T01:01:54;11.80;99.90
59075;DHT22;44860;53.020;6.738;2023-11-19T01:04:19;11.80;99.90
59075;DHT22;44860;53.020;6.738;2023-11-19T01:06:45;11.90;99.90
59075;DHT22;44860;53.020;6.738;2023-11-19T01:09:11;11.90;99.90
59075;DHT22;44860;53.020;6.738;2023-11-19T01:11:36;11.90;99.90
59075;DHT22;44860;53.020;6.738;2023-11-19T01:14:02;12.00;99.90
59075;DHT22;44860;53.020;6.738;2023-11-19T01:16:28;12.00;99.90
59075;DHT22;44860;53.020;6.738;2023-11-19T01:18:53;12.00;99.90
59075;DHT22;44860;53.020;6.738;2023-11-19T01:21:19;12.00;99.90
59075;DHT22;44860;53.020;6.738;2023-11-19T01:23:45;12.00;99.90
59075;DHT22;44860;53.020;6.738;2023-11-19T01:26:12;12.00;99.90
59075;DHT22;44860;53.020;6.738;2023-11-19T01:28:38;12.10;99.90
59075;DHT22;44860;53.020;6.738;2023-11-19T01:31:15;12.10;99.90
59075;DHT22;44860;53.020;6.738;2023-11-19T01:33:40;12.10;99.90
59075;DHT22;44860;53.020;6.738;2023-11-19T01:36:07;12.10;99.90
59075;DHT22;44860;53.020;6.738;2023-11-19T01:38:34;12.10;99.90
59075;DHT22;44860;53.020;6.738;2023-11-19T01:41:00;12.10;99.90
59075;DHT22;44860;53.020;6.738;2023-11-19T01:43:36;12.10;99.90
59075;DHT22;44860;53.020;6.738;2023-11-19T01:46:03;12.20;99.90
59075;DHT22;44860;53.020;6.738;2023-11-19T01:48:31;12.20;99.90
59075;DHT22;44860;53.020;6.738;2023-11-19T01:50:58;12.20;99.90
59075;DHT22;44860;53.020;6.738;2023-11-19T01:53:24;12.20;99.90
59075;DHT22;44860;53.020;6.738;2023-11-19T01:55:50;12.20;99.90
59075;DHT22;44860;53.020;6.738;2023-11-19T01:58:18;12.20;99.90
59075;DHT22;44860;53.020;6.738;2023-11-19T02:00:44;12.30;99.90
59075;DHT22;44860;53.020;6.738;2023-11-19T02:03:11;12.30;99.90
59075;DHT22;44860;53.020;6.738;2023-11-19T02:05:37;12.30;99.90
59075;DHT22;44860;53.020;6.738;2023-11-19T02:08:04;12.30;99.90
59075;DHT22;44860;53.020;6.738;2023-11-19T02:10:30;12.30;99.90
59075;DHT22;44860;53.020;6.738;2023-11-19T02:12:58;12.30;99.90
59075;DHT22;44860;53.020;6.738;2023-11-19T02:15:23;12.30;99.90
59075;DHT22;44860;53.020;6.738;2023-11-19T02:17:51;12.30;99.90
59075;DHT22;44860;53.020;6.738;2023-11-19T02:20:18;12.30;99.90
59075;DHT22;44860;53.020;6.738;2023-11-19T02:22:49;12.30;99.90
59075;DHT22;44860;53.020;6.738;2023-11-19T02:25:34;12.30;99.90
59075;DHT22;44860;53.020;6.738;2023-11-19T02:28:01;12.30;99.90
59075;DHT22;44860;53.020;6.738;2023-11-19T02:30:27;12.30;99.90
59075;DHT22;44860;53.020;6.738;2023-11-19T02:32:57;12.20;99.90
59075;DHT22;44860;53.020;6.738;2023-11-19T02:35:27;12.20;99.90
59075;DHT22;44860;53.020;6.738;2023-11-19T02:37:57;12.20;99.90
59075;DHT22;44860;53.020;6.738;2023-11-19T02:40:23;12.20;99.90
59075;DHT22;44860;53.020;6.738;2023-11-19T02:42:54;12.20;99.90
59075;DHT22;44860;53.020;6.738;2023-11-19T02:45:24;12.20;99.90
59075;DHT22;44860;53.020;6.738;2023-11-19T02:47:51;12.20;99.90
59075;DHT22;44860;53.020;6.738;2023-11-19T02:50:18;12.20;99.90
59075;DHT22;44860;53.020;6.738;2023-11-19T02:52:51;12.20;99.90
59075;DHT22;44860;53.020;6.738;2023-11-19T02:55:16;12.20;99.90
59075;DHT22;44860;53.020;6.738;2023-11-19T02:57:43;12.20;99.90
59075;DHT22;44860;53.020;6.738;2023-11-19T03:00:22;12.20;99.90
59075;DHT22;44860;53.020;6.738;2023-11-19T03:02:57;12.20;99.90
59075;DHT22;44860;53.020;6.738;2023-11-19T03:05:35;12.20;99.90
59075;DHT22;44860;53.020;6.738;2023-11-19T03:08:01;12.20;99.90
59075;DHT22;44860;53.020;6.738;2023-11-19T03:10:26;12.20;99.90
59075;DHT22;44860;53.020;6.738;2023-11-19T03:12:52;12.20;99.90
59075;DHT22;44860;53.020;6.738;2023-11-19T03:15:18;12.20;99.90
59075;DHT22;44860;53.020;6.738;2023-11-19T03:17:44;12.20;99.90
59075;DHT22;44860;53.020;6.738;2023-11-19T03:20:11;12.20;99.90
59075;DHT22;44860;53.020;6.738;2023-11-19T03:22:41;12.20;99.90
59075;DHT22;44860;53.020;6.738;2023-11-19T03:25:10;12.20;99.90
59075;DHT22;44860;53.020;6.738;2023-11-19T03:27:39;12.20;99.90
59075;DHT22;44860;53.020;6.738;2023-11-19T03:30:10;12.20;99.90
59075;DHT22;44860;53.020;6.738;2023-11-19T03:32:36;12.20;99.90
59075;DHT22;44860;53.020;6.738;2023-11-19T03:35:04;12.20;99.90
59075;DHT22;44860;53.020;6.738;2023-11-19T03:37:32;12.10;99.90
59075;DHT22;44860;53.020;6.738;2023-11-19T03:39:58;12.10;99.90
59075;DHT22;44860;53.020;6.738;2023-11-19T03:42:31;12.20;99.90
59075;DHT22;44860;53.020;6.738;2023-11-19T03:44:57;12.10;99.90
59075;DHT22;44860;53.020;6.738;2023-11-19T03:47:23;12.10;99.90
59075;DHT22;44860;53.020;6.738;2023-11-19T03:49:50;12.10;99.90
59075;DHT22;44860;53.020;6.738;2023-11-19T03:52:16;12.20;99.90
59075;DHT22;44860;53.020;6.738;2023-11-19T03:54:42;12.10;99.90
59075;DHT22;44860;53.020;6.738;2023-11-19T03:57:07;12.10;99.90
59075;DHT22;44860;53.020;6.738;2023-11-19T03:59:33;12.10;99.90
59075;DHT22;44860;53.020;6.738;2023-11-19T04:01:59;12.20;99.90
59075;DHT22;44860;53.020;6.738;2023-11-19T04:04:26;12.10;99.90
59075;DHT22;44860;53.020;6.738;2023-11-19T04:06:56;12.10;99.90
59075;DHT22;44860;53.020;6.738;2023-11-19T04:09:22;12.20;99.90
59075;DHT22;44860;53.020;6.738;2023-11-19T04:11:48;12.10;99.90
59075;DHT22;44860;53.020;6.738;2023-11-19T04:14:14;12.10;99.90
59075;DHT22;44860;53.020;6.738;2023-11-19T04:16:40;12.10;99.90
59075;DHT22;44860;53.020;6.738;2023-11-19T04:19:06;12.20;99.90
59075;DHT22;44860;53.020;6.738;2023-11-19T04:21:32;12.10;99.90
59075;DHT22;44860;53.020;6.738;2023-11-19T04:23:58;12.20;99.90
59075;DHT22;44860;53.020;6.738;2023-11-19T04:26:24;12.10;99.90
59075;DHT22;44860;53.020;6.738;2023-11-19T04:28:49;12.20;99.90
59075;DHT22;44860;53.020;6.738;2023-11-19T04:31:16;12.10;99.90
59075;DHT22;44860;53.020;6.738;2023-11-19T04:33:42;12.10;99.90
59075;DHT22;44860;53.020;6.738;2023-11-19T04:36:09;12.10;99.90
59075;DHT22;44860;53.020;6.738;2023-11-19T04:38:35;12.10;99.90
59075;DHT22;44860;53.020;6.738;2023-11-19T04:41:01;12.10;99.90
59075;DHT22;44860;53.020;6.738;2023-11-19T04:43:27;12.10;99.90
59075;DHT22;44860;53.020;6.738;2023-11-19T04:45:52;12.10;99.90
59075;DHT22;44860;53.020;6.738;2023-11-19T04:48:18;12.10;99.90
59075;DHT22;44860;53.020;6.738;2023-11-19T04:50:43;12.00;99.90
59075;DHT22;44860;53.020;6.738;2023-11-19T04:53:09;12.00;99.90
59075;DHT22;44860;53.020;6.738;2023-11-19T04:55:35;12.00;99.90
59075;DHT22;44860;53.020;6.738;2023-11-19T04:58:01;12.00;99.90
59075;DHT22;44860;53.020;6.738;2023-11-19T05:00:26;11.90;99.90
59075;DHT22;44860;53.020;6.738;2023-11-19T05:02:52;11.90;99.90
59075;DHT22;44860;53.020;6.738;2023-11-19T05:05:18;11.90;99.90
59075;DHT22;44860;53.020;6.738;2023-11-19T05:07:44;11.90;99.90
59075;DHT22;44860;53.020;6.738;2023-11-19T05:10:09;11.90;99.90
59075;DHT22;44860;53.020;6.738;2023-11-19T05:12:35;11.90;99.90
59075;DHT22;44860;53.020;6.738;2023-11-19T05:15:01;11.80;99.90
59075;DHT22;44860;53.020;6.738;2023-11-19T05:17:26;11.90;99.90
59075;DHT22;44860;53.020;6.738;2023-11-19T05:19:52;11.90;99.90
59075;DHT22;44860;53.020;6.738;2023-11-19T05:22:18;11.80;99.90
59075;DHT22;44860;53.020;6.738;2023-11-19T05:24:43;11.80;99.90
59075;DHT22;44860;53.020;6.738;2023-11-19T05:27:09;11.90;99.90
59075;DHT22;44860;53.020;6.738;2023-11-19T05:29:37;11.80;99.90
59075;DHT22;44860;53.020;6.738;2023-11-19T05:32:05;11.80;99.90
59075;DHT22;44860;53.020;6.738;2023-11-19T05:34:31;11.80;99.90
59075;DHT22;44860;53.020;6.738;2023-11-19T05:36:56;11.80;99.90
59075;DHT22;44860;53.020;6.738;2023-11-19T05:39:23;11.90;99.90
59075;DHT22;44860;53.020;6.738;2023-11-19T05:41:49;11.80;99.90
59075;DHT22;44860;53.020;6.738;2023-11-19T05:44:15;11.80;99.90
59075;DHT22;44860;53.020;6.738;2023-11-19T05:46:42;11.80;99.90
59075;DHT22;44860;53.020;6.738;2023-11-19T05:49:11;11.90;99.90
59075;DHT22;44860;53.020;6.738;2023-11-19T05:51:41;11.90;99.90
59075;DHT22;44860;53.020;6.738;2023-11-19T05:54:09;11.90;99.90
59075;DHT22;44860;53.020;6.738;2023-11-19T05:56:36;11.80;99.90
59075;DHT22;44860;53.020;6.738;2023-11-19T05:59:02;11.80;99.90
59075;DHT22;44860;53.020;6.738;2023-11-19T06:01:40;11.90;99.90
59075;DHT22;44860;53.020;6.738;2023-11-19T06:04:07;11.80;99.90
59075;DHT22;44860;53.020;6.738;2023-11-19T06:06:33;11.80;99.90
59075;DHT22;44860;53.020;6.738;2023-11-19T06:08:58;11.80;99.90
59075;DHT22;44860;53.020;6.738;2023-11-19T06:11:24;11.80;99.90
59075;DHT22;44860;53.020;6.738;2023-11-19T06:13:52;11.80;99.90
59075;DHT22;44860;53.020;6.738;2023-11-19T06:16:18;11.80;99.90
59075;DHT22;44860;53.020;6.738;2023-11-19T06:18:44;11.80;99.90
59075;DHT22;44860;53.020;6.738;2023-11-19T06:21:10;11.70;99.90
59075;DHT22;44860;53.020;6.738;2023-11-19T06:23:36;11.70;99.90
59075;DHT22;44860;53.020;6.738;2023-11-19T06:26:01;11.80;99.90
59075;DHT22;44860;53.020;6.738;2023-11-19T06:28:27;11.70;99.90
59075;DHT22;44860;53.020;6.738;2023-11-19T06:30:53;11.70;99.90
59075;DHT22;44860;53.020;6.738;2023-11-19T06:33:18;11.80;99.90
59075;DHT22;44860;53.020;6.738;2023-11-19T06:35:44;11.80;99.90
59075;DHT22;44860;53.020;6.738;2023-11-19T06:38:10;11.70;99.90
59075;DHT22;44860;53.020;6.738;2023-11-19T06:40:36;11.70;99.90
59075;DHT22;44860;53.020;6.738;2023-11-19T06:43:02;11.70;99.90
59075;DHT22;44860;53.020;6.738;2023-11-19T06:45:34;11.70;99.90
59075;DHT22;44860;53.020;6.738;2023-11-19T06:48:03;11.70;99.90
59075;DHT22;44860;53.020;6.738;2023-11-19T06:50:29;11.60;99.90
59075;DHT22;44860;53.020;6.738;2023-11-19T06:52:55;11.70;99.90
59075;DHT22;44860;53.020;6.738;2023-11-19T06:55:21;11.70;99.90
59075;DHT22;44860;53.020;6.738;2023-11-19T06:57:46;11.70;99.90
59075;DHT22;44860;53.020;6.738;2023-11-19T07:00:12;11.70;99.90
59075;DHT22;44860;53.020;6.738;2023-11-19T07:02:38;11.60;99.90
59075;DHT22;44860;53.020;6.738;2023-11-19T07:05:05;11.60;99.90
59075;DHT22;44860;53.020;6.738;2023-11-19T07:07:32;11.60;99.90
59075;DHT22;44860;53.020;6.738;2023-11-19T07:09:58;11.60;99.90
59075;DHT22;44860;53.020;6.738;2023-11-19T07:12:24;11.60;99.90
59075;DHT22;44860;53.020;6.738;2023-11-19T07:14:52;11.60;99.90
59075;DHT22;44860;53.020;6.738;2023-11-19T07:17:18;11.60;99.90
59075;DHT22;44860;53.020;6.738;2023-11-19T07:19:51;11.60;99.90
59075;DHT22;44860;53.020;6.738;2023-11-19T07:22:17;11.60;99.90
59075;DHT22;44860;53.020;6.738;2023-11-19T07:24:43;11.60;99.90
59075;DHT22;44860;53.020;6.738;2023-11-19T07:27:08;11.60;99.90
59075;DHT22;44860;53.020;6.738;2023-11-19T07:29:35;11.60;99.90
59075;DHT22;44860;53.020;6.738;2023-11-19T07:32:01;11.60;99.90
59075;DHT22;44860;53.020;6.738;2023-11-19T07:34:30;11.60;99.90
59075;DHT22;44860;53.020;6.738;2023-11-19T07:36:56;11.60;99.90
59075;DHT22;44860;53.020;6.738;2023-11-19T07:39:25;11.60;99.90
59075;DHT22;44860;53.020;6.738;2023-11-19T07:41:50;11.60;99.90
59075;DHT22;44860;53.020;6.738;2023-11-19T07:44:16;11.60;99.90
59075;DHT22;44860;53.020;6.738;2023-11-19T07:46:41;11.60;99.90
59075;DHT22;44860;53.020;6.738;2023-11-19T07:49:10;11.60;99.90
59075;DHT22;44860;53.020;6.738;2023-11-19T07:51:36;11.60;99.90
59075;DHT22;44860;53.020;6.738;2023-11-19T07:54:02;11.60;99.90
59075;DHT22;44860;53.020;6.738;2023-11-19T07:56:28;11.60;99.90
59075;DHT22;44860;53.020;6.738;2023-11-19T07:58:53;11.60;99.90
59075;DHT22;44860;53.020;6.738;2023-11-19T08:01:19;11.60;99.90
59075;DHT22;44860;53.020;6.738;2023-11-19T08:03:45;11.60;99.90
59075;DHT22;44860;53.020;6.738;2023-11-19T08:06:11;11.60;99.90
59075;DHT22;44860;53.020;6.738;2023-11-19T08:08:37;11.60;99.90
59075;DHT22;44860;53.020;6.738;2023-11-19T08:11:04;11.60;99.90
59075;DHT22;44860;53.020;6.738;2023-11-19T08:13:30;11.60;99.90
59075;DHT22;44860;53.020;6.738;2023-11-19T08:15:57;11.60;99.90
59075;DHT22;44860;53.020;6.738;2023-11-19T08:18:24;11.60;99.90
59075;DHT22;44860;53.020;6.738;2023-11-19T08:20:49;11.60;99.90
59075;DHT22;44860;53.020;6.738;2023-11-19T08:23:19;11.60;99.90
59075;DHT22;44860;53.020;6.738;2023-11-19T08:25:44;11.60;99.90
59075;DHT22;44860;53.020;6.738;2023-11-19T08:28:10;11.60;99.90
59075;DHT22;44860;53.020;6.738;2023-11-19T08:30:36;11.60;99.90
59075;DHT22;44860;53.020;6.738;2023-11-19T08:33:01;11.60;99.90
59075;DHT22;44860;53.020;6.738;2023-11-19T08:35:31;11.70;99.90
59075;DHT22;44860;53.020;6.738;2023-11-19T08:37:57;11.70;99.90
59075;DHT22;44860;53.020;6.738;2023-11-19T08:40:24;11.70;99.90
59075;DHT22;44860;53.020;6.738;2023-11-19T08:42:51;11.70;99.90
59075;DHT22;44860;53.020;6.738;2023-11-19T08:45:17;11.70;99.90
59075;DHT22;44860;53.020;6.738;2023-11-19T08:47:43;11.70;99.90
59075;DHT22;44860;53.020;6.738;2023-11-19T08:50:11;11.70;99.90
59075;DHT22;44860;53.020;6.738;2023-11-19T08:52:37;11.70;99.90
59075;DHT22;44860;53.020;6.738;2023-11-19T08:55:02;11.70;99.90
59075;DHT22;44860;53.020;6.738;2023-11-19T08:57:31;11.70;99.90
59075;DHT22;44860;53.020;6.738;2023-11-19T08:59:56;11.70;99.90
59075;DHT22;44860;53.020;6.738;2023-11-19T09:02:22;11.60;99.90
59075;DHT22;44860;53.020;6.738;2023-11-19T09:04:48;11.60;99.90
59075;DHT22;44860;53.020;6.738;2023-11-19T09:07:13;11.50;99.90
59075;DHT22;44860;53.020;6.738;2023-11-19T09:09:39;11.50;99.90
59075;DHT22;44860;53.020;6.738;2023-11-19T09:12:05;11.50;99.90
59075;DHT22;44860;53.020;6.738;2023-11-19T09:14:31;11.50;99.90
59075;DHT22;44860;53.020;6.738;2023-11-19T09:16:57;11.50;99.90
59075;DHT22;44860;53.020;6.738;2023-11-19T09:19:24;11.50;99.90
59075;DHT22;44860;53.020;6.738;2023-11-19T09:21:49;11.50;99.90
59075;DHT22;44860;53.020;6.738;2023-11-19T09:24:16;11.50;99.90
59075;DHT22;44860;53.020;6.738;2023-11-19T09:26:42;11.50;99.90
59075;DHT22;44860;53.020;6.738;2023-11-19T09:29:08;11.50;99.90
59075;DHT22;44860;53.020;6.738;2023-11-19T09:31:33;11.60;99.90
59075;DHT22;44860;53.020;6.738;2023-11-19T09:34:00;11.60;99.90
59075;DHT22;44860;53.020;6.738;2023-11-19T09:36:26;11.60;99.90
59075;DHT22;44860;53.020;6.738;2023-11-19T09:38:51;11.60;99.90
59075;DHT22;44860;53.020;6.738;2023-11-19T09:41:17;11.60;99.90
59075;DHT22;44860;53.020;6.738;2023-11-19T09:43:45;11.60;99.90
59075;DHT22;44860;53.020;6.738;2023-11-19T09:46:14;11.60;99.90
59075;DHT22;44860;53.020;6.738;2023-11-19T09:48:40;11.60;99.90
59075;DHT22;44860;53.020;6.738;2023-11-19T09:51:09;11.60;99.90
59075;DHT22;44860;53.020;6.738;2023-11-19T09:53:35;11.70;99.90
59075;DHT22;44860;53.020;6.738;2023-11-19T09:56:05;11.70;99.90
59075;DHT22;44860;53.020;6.738;2023-11-19T09:58:32;11.70;99.90
59075;DHT22;44860;53.020;6.738;2023-11-19T10:00:58;11.70;99.90
59075;DHT22;44860;53.020;6.738;2023-11-19T10:03:34;11.70;99.90
59075;DHT22;44860;53.020;6.738;2023-11-19T10:06:03;11.70;99.90
59075;DHT22;44860;53.020;6.738;2023-11-19T10:08:29;11.70;99.90
59075;DHT22;44860;53.020;6.738;2023-11-19T10:10:55;11.70;99.90
59075;DHT22;44860;53.020;6.738;2023-11-19T10:13:26;11.70;99.90
59075;DHT22;44860;53.020;6.738;2023-11-19T10:15:53;11.80;99.90
59075;DHT22;44860;53.020;6.738;2023-11-19T10:18:23;11.70;99.90
59075;DHT22;44860;53.020;6.738;2023-11-19T10:20:49;11.80;99.90
59075;DHT22;44860;53.020;6.738;2023-11-19T10:23:14;11.80;99.90
59075;DHT22;44860;53.020;6.738;2023-11-19T10:25:40;11.80;99.90
59075;DHT22;44860;53.020;6.738;2023-11-19T10:28:06;11.80;99.90
59075;DHT22;44860;53.020;6.738;2023-11-19T10:30:31;11.80;99.90
59075;DHT22;44860;53.020;6.738;2023-11-19T10:33:09;11.80;99.90
59075;DHT22;44860;53.020;6.738;2023-11-19T10:35:57;11.90;99.90
59075;DHT22;44860;53.020;6.738;2023-11-19T10:38:24;11.80;99.90
59075;DHT22;44860;53.020;6.738;2023-11-19T10:40:51;11.80;99.90
59075;DHT22;44860;53.020;6.738;2023-11-19T10:43:22;11.80;99.90
59075;DHT22;44860;53.020;6.738;2023-11-19T10:45:49;11.80;99.90
59075;DHT22;44860;53.020;6.738;2023-11-19T10:48:15;11.70;99.90
59075;DHT22;44860;53.020;6.738;2023-11-19T10:50:42;11.70;99.90
59075;DHT22;44860;53.020;6.738;2023-11-19T10:53:10;11.80;99.90
59075;DHT22;44860;53.020;6.738;2023-11-19T10:55:37;11.70;99.90
59075;DHT22;44860;53.020;6.738;2023-11-19T10:58:07;11.70;99.90
59075;DHT22;44860;53.020;6.738;2023-11-19T11:00:48;11.70;99.90
59075;DHT22;44860;53.020;6.738;2023-11-19T11:03:25;11.70;99.90
59075;DHT22;44860;53.020;6.738;2023-11-19T11:05:52;11.70;99.90
59075;DHT22;44860;53.020;6.738;2023-11-19T11:08:19;11.60;99.90
59075;DHT22;44860;53.020;6.738;2023-11-19T11:10:55;11.60;99.90
59075;DHT22;44860;53.020;6.738;2023-11-19T11:13:25;11.60;99.90
59075;DHT22;44860;53.020;6.738;2023-11-19T11:15:53;11.60;99.90
59075;DHT22;44860;53.020;6.738;2023-11-19T11:18:21;11.50;99.90
59075;DHT22;44860;53.020;6.738;2023-11-19T11:20:49;11.50;99.90
59075;DHT22;44860;53.020;6.738;2023-11-19T11:28:35;11.50;99.90
59075;DHT22;44860;53.020;6.738;2023-11-19T11:31:44;11.60;99.90
59075;DHT22;44860;53.020;6.738;2023-11-19T11:39:22;11.70;99.90
59075;DHT22;44860;53.020;6.738;2023-11-19T11:45:06;11.80;99.90
59075;DHT22;44860;53.020;6.738;2023-11-19T11:50:24;11.70;99.90
59075;DHT22;44860;53.020;6.738;2023-11-19T11:55:36;11.80;99.90
59075;DHT22;44860;53.020;6.738;2023-11-19T11:58:03;11.90;99.90
59075;DHT22;44860;53.020;6.738;2023-11-19T12:00:29;11.90;99.90
59075;DHT22;44860;53.020;6.738;2023-11-19T12:02:57;11.90;99.90
59075;DHT22;44860;53.020;6.738;2023-11-19T12:05:24;11.90;99.90
59075;DHT22;44860;53.020;6.738;2023-11-19T12:08:00;12.00;99.90
59075;DHT22;44860;53.020;6.738;2023-11-19T12:10:29;12.00;99.90
59075;DHT22;44860;53.020;6.738;2023-11-19T12:13:00;12.00;99.90
59075;DHT22;44860;53.020;6.738;2023-11-19T12:15:26;12.10;99.90
59075;DHT22;44860;53.020;6.738;2023-11-19T12:17:56;12.10;99.90
59075;DHT22;44860;53.020;6.738;2023-11-19T12:20:23;12.10;99.90
59075;DHT22;44860;53.020;6.738;2023-11-19T12:22:50;12.10;99.90
59075;DHT22;44860;53.020;6.738;2023-11-19T12:25:17;12.10;99.90
59075;DHT22;44860;53.020;6.738;2023-11-19T12:27:47;12.10;99.90
59075;DHT22;44860;53.020;6.738;2023-11-19T12:30:23;12.10;99.90
59075;DHT22;44860;53.020;6.738;2023-11-19T12:32:50;12.10;99.90
59075;DHT22;44860;53.020;6.738;2023-11-19T12:35:16;12.10;99.90
59075;DHT22;44860;53.020;6.738;2023-11-19T12:37:50;12.10;99.90
59075;DHT22;44860;53.020;6.738;2023-11-19T12:40:23;12.10;99.90
59075;DHT22;44860;53.020;6.738;2023-11-19T12:42:51;12.10;99.90
59075;DHT22;44860;53.020;6.738;2023-11-19T12:45:17;12.10;99.90
59075;DHT22;44860;53.020;6.738;2023-11-19T12:47:44;12.10;99.90
59075;DHT22;44860;53.020;6.738;2023-11-19T12:50:12;12.10;99.90
59075;DHT22;44860;53.020;6.738;2023-11-19T12:52:38;12.10;99.90
59075;DHT22;44860;53.020;6.738;2023-11-19T12:55:05;12.10;99.90
59075;DHT22;44860;53.020;6.738;2023-11-19T12:57:55;12.10;99.90
59075;DHT22;44860;53.020;6.738;2023-11-19T13:00:22;12.10;99.90
59075;DHT22;44860;53.020;6.738;2023-11-19T13:02:50;12.10;99.90
59075;DHT22;44860;53.020;6.738;2023-11-19T13:05:23;12.10;99.90
59075;DHT22;44860;53.020;6.738;2023-11-19T13:07:49;12.10;99.90
59075;DHT22;44860;53.020;6.738;2023-11-19T13:10:15;12.10;99.90
59075;DHT22;44860;53.020;6.738;2023-11-19T13:12:41;12.10;99.90
59075;DHT22;44860;53.020;6.738;2023-11-19T13:15:07;12.10;99.90
59075;DHT22;44860;53.020;6.738;2023-11-19T13:17:47;12.00;99.90
59075;DHT22;44860;53.020;6.738;2023-11-19T13:20:13;12.00;99.90
59075;DHT22;44860;53.020;6.738;2023-11-19T13:22:57;12.00;99.90
59075;DHT22;44860;53.020;6.738;2023-11-19T13:25:23;12.10;99.90
59075;DHT22;44860;53.020;6.738;2023-11-19T13:27:48;12.10;99.90
59075;DHT22;44860;53.020;6.738;2023-11-19T13:30:14;12.10;99.90
59075;DHT22;44860;53.020;6.738;2023-11-19T13:32:40;12.10;99.90
59075;DHT22;44860;53.020;6.738;2023-11-19T13:35:07;12.10;99.90
59075;DHT22;44860;53.020;6.738;2023-11-19T13:37:34;12.10;99.90
59075;DHT22;44860;53.020;6.738;2023-11-19T13:40:00;12.00;99.90
59075;DHT22;44860;53.020;6.738;2023-11-19T13:42:26;12.10;99.90
59075;DHT22;44860;53.020;6.738;2023-11-19T13:44:52;12.00;99.90
59075;DHT22;44860;53.020;6.738;2023-11-19T13:47:18;12.00;99.90
59075;DHT22;44860;53.020;6.738;2023-11-19T13:49:47;12.00;99.90
59075;DHT22;44860;53.020;6.738;2023-11-19T13:52:12;12.00;99.90
59075;DHT22;44860;53.020;6.738;2023-11-19T13:54:38;12.00;99.90
59075;DHT22;44860;53.020;6.738;2023-11-19T13:57:04;12.00;99.90
59075;DHT22;44860;53.020;6.738;2023-11-19T13:59:31;12.00;99.90
59075;DHT22;44860;53.020;6.738;2023-11-19T14:01:58;12.00;99.90
59075;DHT22;44860;53.020;6.738;2023-11-19T14:04:23;11.90;99.90
59075;DHT22;44860;53.020;6.738;2023-11-19T14:06:50;11.90;99.90
59075;DHT22;44860;53.020;6.738;2023-11-19T14:09:15;11.90;99.90
59075;DHT22;44860;53.020;6.738;2023-11-19T14:11:41;11.90;99.90
59075;DHT22;44860;53.020;6.738;2023-11-19T14:14:07;11.90;99.90
59075;DHT22;44860;53.020;6.738;2023-11-19T14:16:33;11.80;99.90
59075;DHT22;44860;53.020;6.738;2023-11-19T14:19:00;11.80;99.90
59075;DHT22;44860;53.020;6.738;2023-11-19T14:21:25;11.80;99.90
59075;DHT22;44860;53.020;6.738;2023-11-19T14:23:52;11.80;99.90
59075;DHT22;44860;53.020;6.738;2023-11-19T14:26:18;11.80;99.90
59075;DHT22;44860;53.020;6.738;2023-11-19T14:28:44;11.80;99.90
59075;DHT22;44860;53.020;6.738;2023-11-19T14:31:10;11.70;99.90
59075;DHT22;44860;53.020;6.738;2023-11-19T14:33:35;11.80;99.90
59075;DHT22;44860;53.020;6.738;2023-11-19T14:36:03;11.80;99.90
59075;DHT22;44860;53.020;6.738;2023-11-19T14:38:29;11.80;99.90
59075;DHT22;44860;53.020;6.738;2023-11-19T14:40:55;11.80;99.90
59075;DHT22;44860;53.020;6.738;2023-11-19T14:43:21;11.80;99.90
59075;DHT22;44860;53.020;6.738;2023-11-19T14:45:46;11.70;99.90
59075;DHT22;44860;53.020;6.738;2023-11-19T14:48:12;11.70;99.90
59075;DHT22;44860;53.020;6.738;2023-11-19T14:50:38;11.70;99.90
59075;DHT22;44860;53.020;6.738;2023-11-19T14:53:03;11.70;99.90
59075;DHT22;44860;53.020;6.738;2023-11-19T14:55:29;11.70;99.90
59075;DHT22;44860;53.020;6.738;2023-11-19T14:57:54;11.70;99.90
59075;DHT22;44860;53.020;6.738;2023-11-19T15:00:22;11.70;99.90
59075;DHT22;44860;53.020;6.738;2023-11-19T15:02:47;11.60;99.90
59075;DHT22;44860;53.020;6.738;2023-11-19T15:05:13;11.60;99.90
59075;DHT22;44860;53.020;6.738;2023-11-19T15:07:39;11.60;99.90
59075;DHT22;44860;53.020;6.738;2023-11-19T15:10:06;11.60;99.90
59075;DHT22;44860;53.020;6.738;2023-11-19T15:12:39;11.60;99.90
59075;DHT22;44860;53.020;6.738;2023-11-19T15:15:09;11.60;99.90
59075;DHT22;44860;53.020;6.738;2023-11-19T15:17:35;11.60;99.90
59075;DHT22;44860;53.020;6.738;2023-11-19T15:20:03;11.60;99.90
59075;DHT22;44860;53.020;6.738;2023-11-19T15:22:29;11.60;99.90
59075;DHT22;44860;53.020;6.738;2023-11-19T15:24:54;11.60;99.90
59075;DHT22;44860;53.020;6.738;2023-11-19T15:27:20;11.60;99.90
59075;DHT22;44860;53.020;6.738;2023-11-19T15:29:46;11.50;99.90
59075;DHT22;44860;53.020;6.738;2023-11-19T15:32:11;11.50;99.90
59075;DHT22;44860;53.020;6.738;2023-11-19T15:34:37;11.50;99.90
59075;DHT22;44860;53.020;6.738;2023-11-19T15:37:03;11.50;99.90
59075;DHT22;44860;53.020;6.738;2023-11-19T15:39:29;11.50;99.90
59075;DHT22;44860;53.020;6.738;2023-11-19T15:41:55;11.50;99.90
59075;DHT22;44860;53.020;6.738;2023-11-19T15:44:23;11.50;99.90
59075;DHT22;44860;53.020;6.738;2023-11-19T15:46:49;11.40;99.90
59075;DHT22;44860;53.020;6.738;2023-11-19T15:49:15;11.50;99.90